createdAt,value
2023-04-19T00:00:14.465Z,9.00
2023-04-19T00:02:42.778Z,7.70
2023-04-19T00:05:11.841Z,8.33
2023-04-19T00:07:38.539Z,7.67
2023-04-19T00:10:05.496Z,7.30
2023-04-19T00:12:31.921Z,7.50
2023-04-19T00:14:58.726Z,9.20
2023-04-19T00:17:25.205Z,8.67
2023-04-19T00:19:52.123Z,9.93
2023-04-19T00:22:18.603Z,10.33
2023-04-19T00:24:45.086Z,9.70
2023-04-19T00:27:11.903Z,8.00
2023-04-19T00:29:39.101Z,8.77
2023-04-19T00:32:06.032Z,9.30
2023-04-19T00:34:32.775Z,9.07
2023-04-19T00:36:59.264Z,10.37
2023-04-19T00:39:25.851Z,10.13
2023-04-19T00:41:53.081Z,9.50
2023-04-19T00:44:19.700Z,8.83
2023-04-19T00:46:46.712Z,9.03
2023-04-19T00:49:13.230Z,9.20
2023-04-19T00:51:39.773Z,9.73
2023-04-19T00:54:07.640Z,8.90
2023-04-19T00:56:34.897Z,9.40
2023-04-19T00:59:02.067Z,8.63
2023-04-19T01:01:29.089Z,10.37
2023-04-19T01:03:55.757Z,10.33
2023-04-19T01:06:22.364Z,9.77
2023-04-19T01:08:48.810Z,10.37
2023-04-19T01:11:15.316Z,9.30
2023-04-19T01:13:43.377Z,10.63
2023-04-19T01:16:11.194Z,11.57
2023-04-19T01:18:39.360Z,9.83
2023-04-19T01:21:07.038Z,11.80
2023-04-19T01:23:33.516Z,10.33
2023-04-19T01:26:01.634Z,14.10
2023-04-19T01:28:28.613Z,12.27
2023-04-19T01:30:55.146Z,12.53
2023-04-19T01:33:21.974Z,12.63
2023-04-19T01:35:49.483Z,10.63
2023-04-19T01:38:17.133Z,9.87
2023-04-19T01:40:44.110Z,10.70
2023-04-19T01:43:14.848Z,11.93
2023-04-19T01:45:41.310Z,12.37
2023-04-19T01:48:08.176Z,13.37
2023-04-19T01:50:34.738Z,12.77
2023-04-19T01:53:01.245Z,11.27
2023-04-19T01:55:27.882Z,11.70
2023-04-19T01:57:54.818Z,13.60
2023-04-19T02:00:21.915Z,11.80
2023-04-19T02:02:48.865Z,12.53
2023-04-19T02:05:15.739Z,12.50
2023-04-19T02:07:42.374Z,11.77
2023-04-19T02:10:11.901Z,12.60
2023-04-19T02:12:38.751Z,12.63
2023-04-19T02:15:05.873Z,13.57
2023-04-19T02:17:36.600Z,14.10
2023-04-19T02:20:04.523Z,13.77
2023-04-19T02:22:30.950Z,14.33
2023-04-19T02:24:57.441Z,13.50
2023-04-19T02:27:30.066Z,12.53
2023-04-19T02:29:56.733Z,13.90
2023-04-19T02:32:24.218Z,12.20
2023-04-19T02:34:51.121Z,12.67
2023-04-19T02:37:18.450Z,13.50
2023-04-19T02:39:45.873Z,12.60
2023-04-19T02:42:12.380Z,13.33
2023-04-19T02:44:38.850Z,15.47
2023-04-19T02:47:05.402Z,12.87
2023-04-19T02:49:36.883Z,14.03
2023-04-19T02:52:04.166Z,11.47
2023-04-19T02:54:33.201Z,14.00
2023-04-19T02:56:59.781Z,12.30
2023-04-19T02:59:26.673Z,12.60
2023-04-19T03:01:53.298Z,14.57
2023-04-19T03:04:20.390Z,19.97
2023-04-19T03:06:46.864Z,17.80
2023-04-19T03:09:13.555Z,18.80
2023-04-19T03:11:39.986Z,16.37
2023-04-19T03:14:06.474Z,13.50
2023-04-19T03:16:33.683Z,16.93
2023-04-19T03:19:00.159Z,21.93
2023-04-19T03:21:30.640Z,17.87
2023-04-19T03:23:57.096Z,17.00
2023-04-19T03:26:24.913Z,17.10
2023-04-19T03:28:53.582Z,14.47
2023-04-19T03:31:25.012Z,17.87
2023-04-19T03:33:53.061Z,13.60
2023-04-19T03:36:23.365Z,16.40
2023-04-19T03:38:50.184Z,13.20
2023-04-19T03:41:24.431Z,14.37
2023-04-19T03:43:59.801Z,13.50
2023-04-19T03:46:26.364Z,12.37
2023-04-19T03:48:53.198Z,15.07
2023-04-19T03:51:20.205Z,15.30
2023-04-19T03:53:46.731Z,15.67
2023-04-19T03:56:17.127Z,14.00
2023-04-19T03:58:43.658Z,15.27
2023-04-19T04:01:20.806Z,11.77
2023-04-19T04:03:48.859Z,12.10
2023-04-19T04:06:16.165Z,12.07
2023-04-19T04:08:42.858Z,12.23
2023-04-19T04:11:09.414Z,10.90
2023-04-19T04:13:36.063Z,11.83
2023-04-19T04:16:11.226Z,10.40
2023-04-19T04:18:38.777Z,11.83
2023-04-19T04:21:09.013Z,11.53
2023-04-19T04:23:38.509Z,13.67
2023-04-19T04:26:10.025Z,11.63
2023-04-19T04:28:55.314Z,11.90
2023-04-19T04:31:21.915Z,11.23
2023-04-19T04:33:48.488Z,10.43
2023-04-19T04:36:18.339Z,13.30
2023-04-19T04:38:45.600Z,13.43
2023-04-19T04:41:12.435Z,13.30
2023-04-19T04:43:39.648Z,13.23
2023-04-19T04:46:06.224Z,12.70
2023-04-19T04:48:37.714Z,12.30
2023-04-19T04:51:05.575Z,13.23
2023-04-19T04:53:33.321Z,13.17
2023-04-19T04:56:02.518Z,11.03
2023-04-19T04:58:30.394Z,12.97
2023-04-19T05:01:01.498Z,12.23
2023-04-19T05:03:29.380Z,13.23
2023-04-19T05:05:58.554Z,12.10
2023-04-19T05:08:26.805Z,15.03
2023-04-19T05:10:57.122Z,12.70
2023-04-19T05:13:26.501Z,14.17
2023-04-19T05:15:54.164Z,12.97
2023-04-19T05:18:20.751Z,15.77
2023-04-19T05:20:48.852Z,13.40
2023-04-19T05:23:20.347Z,13.40
2023-04-19T05:25:47.826Z,13.77
2023-04-19T05:28:14.324Z,12.57
2023-04-19T05:30:48.339Z,13.53
2023-04-19T05:33:15.056Z,12.33
2023-04-19T05:35:42.097Z,13.40
2023-04-19T05:38:08.852Z,12.93
2023-04-19T05:40:35.716Z,12.93
2023-04-19T05:43:02.205Z,13.33
2023-04-19T05:45:28.801Z,14.03
2023-04-19T05:47:55.512Z,12.57
2023-04-19T05:50:44.989Z,13.23
2023-04-19T05:53:34.315Z,12.67
2023-04-19T05:56:00.798Z,14.67
2023-04-19T05:58:27.311Z,13.43
2023-04-19T06:00:53.950Z,13.90
2023-04-19T06:03:22.342Z,12.83
2023-04-19T06:05:49.555Z,13.80
2023-04-19T06:08:17.603Z,13.60
2023-04-19T06:10:54.661Z,13.30
2023-04-19T06:13:24.854Z,14.60
2023-04-19T06:15:52.217Z,13.90
2023-04-19T06:18:20.039Z,12.57
2023-04-19T06:20:47.005Z,12.90
2023-04-19T06:23:14.751Z,13.23
2023-04-19T06:25:41.378Z,12.87
2023-04-19T06:28:07.828Z,13.70
2023-04-19T06:30:34.364Z,13.47
2023-04-19T06:33:01.860Z,13.93
2023-04-19T06:35:28.328Z,13.43
2023-04-19T06:37:54.782Z,13.13
2023-04-19T06:40:21.438Z,14.30
2023-04-19T06:42:47.891Z,12.70
2023-04-19T06:45:16.088Z,13.40
2023-04-19T06:47:42.764Z,12.23
2023-04-19T06:50:10.898Z,14.47
2023-04-19T06:52:37.537Z,13.20
2023-04-19T06:55:04.521Z,12.27
2023-04-19T06:57:30.951Z,13.70
2023-04-19T06:59:58.498Z,12.93
2023-04-19T07:02:25.238Z,15.97
2023-04-19T07:04:51.816Z,13.40
2023-04-19T07:07:18.311Z,13.40
2023-04-19T07:09:44.796Z,14.80
2023-04-19T07:12:11.260Z,13.50
2023-04-19T07:14:37.711Z,14.57
2023-04-19T07:17:05.452Z,14.00
2023-04-19T07:19:31.988Z,14.30
2023-04-19T07:21:58.463Z,13.10
2023-04-19T07:24:27.845Z,13.07
2023-04-19T07:26:54.507Z,13.77
2023-04-19T07:29:21.173Z,12.73
2023-04-19T07:31:47.803Z,13.10
2023-04-19T07:34:14.706Z,12.50
2023-04-19T07:36:41.369Z,11.93
2023-04-19T07:39:08.153Z,12.70
2023-04-19T07:41:36.108Z,13.27
2023-04-19T07:44:03.032Z,12.50
2023-04-19T07:46:29.599Z,13.80
2023-04-19T07:48:56.174Z,11.13
2023-04-19T07:51:24.616Z,13.80
2023-04-19T07:53:51.140Z,12.17
2023-04-19T07:56:19.620Z,13.10
2023-04-19T07:58:50.840Z,12.67
2023-04-19T08:01:23.464Z,13.60
2023-04-19T08:03:50.259Z,13.20
2023-04-19T08:06:17.822Z,12.87
2023-04-19T08:08:44.255Z,14.13
2023-04-19T08:11:10.776Z,14.60
2023-04-19T08:13:37.786Z,13.33
2023-04-19T08:18:36.067Z,13.40
2023-04-19T08:21:02.668Z,13.60
2023-04-19T08:23:41.196Z,15.70
2023-04-19T08:26:14.144Z,15.03
2023-04-19T08:28:40.644Z,15.47
2023-04-19T08:31:10.262Z,16.57
2023-04-19T08:33:36.807Z,16.00
2023-04-19T08:36:03.360Z,15.87
2023-04-19T08:38:29.843Z,16.80
2023-04-19T08:40:56.425Z,16.10
2023-04-19T08:43:25.286Z,16.77
2023-04-19T08:45:52.697Z,16.00
2023-04-19T08:48:19.325Z,17.70
2023-04-19T08:51:00.546Z,17.33
2023-04-19T08:53:30.669Z,17.33
2023-04-19T08:56:12.881Z,16.40
2023-04-19T08:59:00.336Z,16.57
2023-04-19T09:01:35.986Z,17.53
2023-04-19T09:04:33.875Z,17.80
2023-04-19T09:06:54.639Z,15.97
2023-04-19T09:09:37.148Z,18.07
2023-04-19T09:12:17.771Z,19.17
2023-04-19T09:15:00.547Z,18.70
2023-04-19T09:17:27.604Z,18.50
2023-04-19T09:19:54.145Z,18.57
2023-04-19T09:22:21.455Z,19.27
2023-04-19T09:27:31.815Z,19.53
2023-04-19T09:30:00.799Z,17.03
2023-04-19T09:32:28.383Z,18.97
2023-04-19T09:34:59.345Z,19.60
2023-04-19T09:37:51.433Z,21.20
2023-04-19T09:40:26.834Z,19.23
2023-04-19T09:48:01.563Z,18.60
2023-04-19T09:50:28.836Z,17.90
2023-04-19T09:52:55.615Z,19.23
2023-04-19T09:55:27.881Z,18.10
2023-04-19T09:57:55.678Z,18.30
2023-04-19T10:00:22.872Z,19.90
2023-04-19T10:02:55.830Z,17.63
2023-04-19T10:05:24.759Z,16.17
2023-04-19T10:07:54.180Z,16.00
2023-04-19T10:10:30.218Z,17.43
2023-04-19T10:15:51.212Z,15.13
2023-04-19T10:18:20.466Z,15.30
2023-04-19T10:20:52.619Z,15.43
2023-04-19T10:23:20.495Z,14.57
2023-04-19T10:25:48.086Z,15.00
2023-04-19T10:28:17.813Z,15.77
2023-04-19T10:31:01.776Z,15.13
2023-04-19T10:33:31.517Z,10.47
2023-04-19T10:35:59.588Z,8.93
2023-04-19T10:38:49.357Z,7.33
2023-04-19T10:41:17.919Z,4.53
2023-04-19T10:43:47.514Z,4.57
2023-04-19T10:46:24.459Z,4.00
2023-04-19T10:48:58.615Z,4.93
2023-04-19T10:51:33.329Z,4.27
2023-04-19T10:54:01.661Z,4.20
2023-04-19T10:56:34.339Z,4.67
2023-04-19T10:59:01.289Z,4.83
2023-04-19T11:01:39.773Z,5.23
2023-04-19T11:04:07.612Z,4.87
2023-04-19T11:06:34.998Z,4.30
2023-04-19T11:09:04.629Z,4.93
2023-04-19T11:11:35.839Z,5.50
2023-04-19T11:14:04.223Z,5.27
2023-04-19T11:16:42.344Z,4.20
2023-04-19T11:19:18.761Z,4.70
2023-04-19T11:21:46.404Z,4.13
2023-04-19T11:24:13.416Z,4.73
2023-04-19T11:26:42.839Z,3.47
2023-04-19T11:29:09.849Z,3.20
2023-04-19T11:31:36.633Z,4.23
2023-04-19T11:34:03.617Z,3.67
2023-04-19T11:36:32.017Z,3.40
2023-04-19T11:38:58.835Z,3.63
2023-04-19T11:41:25.395Z,3.93
2023-04-19T11:43:51.987Z,3.40
2023-04-19T11:46:18.557Z,3.30
2023-04-19T11:48:54.771Z,3.60
2023-04-19T11:51:21.576Z,3.60
2023-04-19T11:53:48.102Z,3.97
2023-04-19T11:56:15.339Z,3.20
2023-04-19T11:58:45.119Z,3.50
2023-04-19T12:01:13.369Z,3.80
2023-04-19T12:03:49.919Z,3.47
2023-04-19T12:06:28.021Z,3.83
2023-04-19T12:08:56.205Z,4.20
2023-04-19T12:11:26.238Z,4.23
2023-04-19T12:14:28.325Z,4.57
2023-04-19T12:17:08.849Z,4.73
2023-04-19T12:19:37.227Z,4.63
2023-04-19T12:22:10.984Z,3.90
2023-04-19T12:24:38.105Z,4.40
2023-04-19T12:27:04.702Z,4.23
2023-04-19T12:29:31.772Z,4.77
2023-04-19T12:31:58.382Z,4.43
2023-04-19T12:34:24.919Z,4.07
2023-04-19T12:36:51.568Z,5.67
2023-04-19T12:39:18.144Z,5.10
2023-04-19T12:41:44.787Z,5.30
2023-04-19T12:44:13.463Z,4.77
2023-04-19T12:46:40.363Z,4.87
2023-04-19T12:49:07.030Z,5.13
2023-04-19T12:51:33.679Z,5.43
2023-04-19T12:54:00.925Z,5.40
2023-04-19T12:56:27.351Z,6.20
2023-04-19T12:58:53.897Z,5.00
2023-04-19T13:01:20.384Z,5.50
2023-04-19T13:03:47.138Z,5.70
2023-04-19T13:06:15.423Z,6.30
2023-04-19T13:08:46.630Z,5.90
2023-04-19T13:11:14.208Z,5.23
2023-04-19T13:13:40.689Z,5.90
2023-04-19T13:16:08.034Z,5.53
2023-04-19T13:18:35.014Z,4.27
2023-04-19T13:21:01.556Z,3.27
2023-04-19T13:23:28.076Z,2.97
2023-04-19T13:25:54.542Z,2.67
2023-04-19T13:28:21.026Z,2.40
2023-04-19T13:30:47.610Z,1.90
2023-04-19T13:33:14.082Z,2.63
2023-04-19T13:35:40.534Z,2.50
2023-04-19T13:38:07.139Z,2.70
2023-04-19T13:40:33.689Z,2.80
2023-04-19T13:43:00.196Z,3.00
2023-04-19T13:45:26.711Z,2.93
2023-04-19T13:47:53.263Z,2.27
2023-04-19T13:50:19.841Z,2.53
2023-04-19T13:52:46.323Z,2.10
2023-04-19T13:55:12.774Z,2.57
2023-04-19T13:57:39.403Z,3.10
2023-04-19T14:00:06.625Z,3.07
2023-04-19T14:02:34.053Z,2.77
2023-04-19T14:05:00.823Z,3.13
2023-04-19T14:07:27.375Z,2.90
2023-04-19T14:09:54.179Z,3.00
2023-04-19T14:12:20.985Z,3.30
2023-04-19T14:14:47.491Z,3.23
2023-04-19T14:17:13.941Z,2.90
2023-04-19T14:19:40.403Z,2.53
2023-04-19T14:22:06.851Z,3.10
2023-04-19T14:24:33.309Z,2.90
2023-04-19T14:27:10.565Z,3.20
2023-04-19T14:29:38.579Z,2.77
2023-04-19T14:32:23.612Z,2.37
2023-04-19T14:34:52.713Z,2.83
2023-04-19T14:37:19.370Z,3.10
2023-04-19T14:39:46.248Z,2.50
2023-04-19T14:42:12.923Z,3.20
2023-04-19T14:44:40.457Z,2.50
2023-04-19T14:47:07.430Z,2.93
2023-04-19T14:49:34.259Z,2.70
2023-04-19T14:52:00.717Z,3.60
2023-04-19T14:54:27.254Z,2.90
2023-04-19T14:56:53.800Z,3.17
2023-04-19T14:59:20.519Z,2.90
2023-04-19T15:01:47.191Z,3.20
2023-04-19T15:04:14.166Z,3.63
2023-04-19T15:06:41.251Z,3.60
2023-04-19T15:09:07.841Z,3.83
2023-04-19T15:11:34.438Z,4.10
2023-04-19T15:14:00.920Z,3.67
2023-04-19T15:16:27.500Z,3.80
2023-04-19T15:18:54.025Z,3.60
2023-04-19T15:21:23.753Z,3.73
2023-04-19T15:23:51.232Z,3.60
2023-04-19T15:26:17.707Z,3.30
2023-04-19T15:28:44.218Z,3.40
2023-04-19T15:31:10.868Z,4.80
2023-04-19T15:33:37.848Z,4.00
2023-04-19T15:36:05.199Z,2.70
2023-04-19T15:38:32.623Z,3.13
2023-04-19T15:41:00.725Z,3.80
2023-04-19T15:43:27.325Z,2.83
2023-04-19T15:45:53.795Z,3.60
2023-04-19T15:48:20.838Z,3.50
2023-04-19T15:50:47.463Z,3.57
2023-04-19T15:53:14.170Z,3.50
2023-04-19T15:55:41.448Z,3.20
2023-04-19T15:58:07.993Z,2.87
2023-04-19T16:00:34.474Z,3.17
2023-04-19T16:03:01.004Z,3.30
2023-04-19T16:05:27.694Z,4.00
2023-04-19T16:08:03.972Z,4.07
2023-04-19T16:10:30.759Z,3.50
2023-04-19T16:12:57.321Z,3.03
2023-04-19T16:15:24.131Z,3.70
2023-04-19T16:17:52.018Z,3.20
2023-04-19T16:20:18.993Z,3.10
2023-04-19T16:22:45.549Z,3.20
2023-04-19T16:25:12.865Z,4.60
2023-04-19T16:27:43.835Z,3.40
2023-04-19T16:30:11.379Z,3.00
2023-04-19T16:32:38.128Z,4.10
2023-04-19T16:35:05.752Z,3.77
2023-04-19T16:37:32.898Z,4.20
2023-04-19T16:40:00.491Z,4.57
2023-04-19T16:42:26.973Z,3.23
2023-04-19T16:44:53.491Z,4.17
2023-04-19T16:47:21.847Z,3.90
2023-04-19T16:49:50.330Z,3.60
2023-04-19T16:52:17.371Z,4.30
2023-04-19T16:54:44.784Z,3.97
2023-04-19T16:57:11.592Z,3.53
2023-04-19T16:59:38.027Z,4.37
2023-04-19T17:02:07.416Z,3.57
2023-04-19T17:04:34.332Z,4.40
2023-04-19T17:07:01.094Z,3.57
2023-04-19T17:09:27.777Z,4.10
2023-04-19T17:11:54.986Z,4.20
2023-04-19T17:14:21.651Z,3.80
2023-04-19T17:16:48.282Z,4.60
2023-04-19T17:19:15.449Z,4.33
2023-04-19T17:21:42.097Z,3.83
2023-04-19T17:24:08.559Z,4.10
2023-04-19T17:26:35.183Z,3.30
2023-04-19T17:29:02.189Z,3.43
2023-04-19T17:31:28.723Z,4.20
2023-04-19T17:33:55.328Z,3.47
2023-04-19T17:36:21.796Z,4.07
2023-04-19T17:38:48.233Z,4.00
2023-04-19T17:41:17.760Z,4.40
2023-04-19T17:43:45.508Z,3.90
2023-04-19T17:46:12.319Z,3.07
2023-04-19T17:48:38.995Z,4.20
2023-04-19T17:51:05.610Z,3.67
2023-04-19T17:53:32.207Z,3.23
2023-04-19T17:55:59.046Z,4.10
2023-04-19T17:58:25.583Z,3.50
2023-04-19T18:00:52.055Z,3.60
2023-04-19T18:03:18.631Z,3.60
2023-04-19T18:05:45.332Z,4.27
2023-04-19T18:08:13.350Z,3.70
2023-04-19T18:10:39.900Z,3.70
2023-04-19T18:13:06.442Z,4.03
2023-04-19T18:15:32.893Z,4.40
2023-04-19T18:17:59.406Z,4.23
2023-04-19T18:20:26.137Z,4.50
2023-04-19T18:22:53.522Z,4.73
2023-04-19T18:25:19.972Z,5.33
2023-04-19T18:27:46.486Z,4.97
2023-04-19T18:30:13.243Z,4.87
2023-04-19T18:32:39.873Z,5.03
2023-04-19T18:35:08.876Z,5.00
2023-04-19T18:37:35.736Z,4.73
2023-04-19T18:40:03.455Z,4.83
2023-04-19T18:42:29.900Z,4.30
2023-04-19T18:44:56.370Z,5.23
2023-04-19T18:47:22.865Z,5.47
2023-04-19T18:50:03.768Z,4.40
2023-04-19T18:52:33.064Z,4.80
2023-04-19T18:54:59.544Z,4.50
2023-04-19T18:57:27.342Z,4.10
2023-04-19T18:59:56.376Z,5.57
2023-04-19T19:02:22.985Z,5.07
2023-04-19T19:04:57.122Z,4.57
2023-04-19T19:07:35.450Z,4.50
2023-04-19T19:10:09.639Z,4.27
2023-04-19T19:12:44.603Z,4.80
2023-04-19T19:15:11.156Z,4.40
2023-04-19T19:17:38.069Z,4.90
2023-04-19T19:20:06.702Z,4.80
2023-04-19T19:22:34.144Z,4.90
2023-04-19T19:25:01.118Z,5.17
2023-04-19T19:27:27.744Z,5.10
2023-04-19T19:29:54.281Z,4.60
2023-04-19T19:32:20.850Z,4.00
2023-04-19T19:37:17.450Z,5.10
2023-04-19T19:39:44.924Z,5.00
2023-04-19T19:42:15.749Z,5.80
2023-04-19T19:44:42.329Z,6.50
2023-04-19T19:47:10.534Z,5.57
2023-04-19T19:49:51.970Z,5.17
2023-04-19T19:52:23.826Z,5.80
2023-04-19T19:54:50.253Z,5.07
2023-04-19T19:59:51.668Z,4.97
2023-04-19T20:02:22.248Z,4.70
2023-04-19T20:04:49.281Z,5.73
2023-04-19T20:09:45.491Z,5.30
2023-04-19T20:12:13.564Z,5.63
2023-04-19T20:14:40.535Z,5.90
2023-04-19T20:17:07.213Z,5.00
2023-04-19T20:19:34.097Z,6.17
2023-04-19T20:22:00.838Z,6.10
2023-04-19T20:24:27.504Z,5.23
2023-04-19T20:26:53.972Z,5.50
2023-04-19T20:29:20.624Z,4.87
2023-04-19T20:31:47.141Z,4.97
2023-04-19T20:34:13.762Z,5.60
2023-04-19T20:36:40.398Z,5.93
2023-04-19T20:39:13.043Z,5.83
2023-04-19T20:41:39.730Z,6.60
2023-04-19T20:44:06.295Z,5.83
2023-04-19T20:46:35.923Z,5.93
2023-04-19T20:49:03.000Z,5.83
2023-04-19T20:51:29.497Z,5.33
2023-04-19T20:53:56.109Z,5.23
2023-04-19T20:56:23.005Z,5.23
2023-04-19T20:58:49.514Z,5.63
2023-04-19T21:01:17.495Z,9.00
2023-04-19T21:03:44.983Z,5.90
2023-04-19T21:06:12.146Z,5.50
2023-04-19T21:08:38.881Z,5.90
2023-04-19T21:11:05.437Z,6.47
2023-04-19T21:13:32.653Z,7.10
2023-04-19T21:15:59.547Z,5.43
2023-04-19T21:18:28.619Z,6.17
2023-04-19T21:20:56.196Z,5.30
2023-04-19T21:23:22.915Z,6.03
2023-04-19T21:25:49.790Z,7.10
2023-04-19T21:28:16.523Z,5.80
2023-04-19T21:30:43.477Z,7.43
2023-04-19T21:33:10.571Z,6.23
2023-04-19T21:35:37.297Z,5.87
2023-04-19T21:38:04.062Z,5.80
2023-04-19T21:40:30.696Z,6.23
2023-04-19T21:42:57.282Z,5.30
2023-04-19T21:45:23.937Z,6.53
2023-04-19T21:47:51.188Z,5.03
2023-04-19T21:50:17.970Z,6.23
2023-04-19T21:52:44.568Z,6.83
2023-04-19T21:55:11.152Z,6.83
2023-04-19T21:57:38.428Z,6.50
2023-04-19T22:00:06.284Z,6.90
2023-04-19T22:02:33.480Z,7.03
2023-04-19T22:05:00.320Z,8.00
2023-04-19T22:07:30.591Z,7.17
2023-04-19T22:10:01.309Z,6.43
2023-04-19T22:12:27.866Z,5.70
2023-04-19T22:14:54.399Z,5.70
2023-04-19T22:17:21.357Z,6.23
2023-04-19T22:19:48.455Z,5.80
2023-04-19T22:22:15.239Z,5.43
2023-04-19T22:24:56.381Z,6.00
2023-04-19T22:27:24.683Z,6.47
2023-04-19T22:29:51.221Z,5.70
2023-04-19T22:32:17.916Z,6.77
2023-04-19T22:34:44.742Z,6.40
2023-04-19T22:37:11.209Z,5.03
2023-04-19T22:39:37.669Z,5.97
2023-04-19T22:42:04.254Z,6.20
2023-04-19T22:44:30.872Z,5.60
2023-04-19T22:46:58.221Z,5.00
2023-04-19T22:49:24.789Z,5.17
2023-04-19T22:51:51.264Z,5.40
2023-04-19T22:54:17.705Z,6.00
2023-04-19T22:56:44.198Z,5.13
2023-04-19T22:59:10.767Z,6.03
2023-04-19T23:01:37.374Z,6.40
2023-04-19T23:04:03.882Z,5.60
2023-04-19T23:06:30.365Z,6.80
2023-04-19T23:08:56.837Z,4.93
2023-04-19T23:11:24.990Z,8.00
2023-04-19T23:13:55.298Z,5.10
2023-04-19T23:16:25.897Z,5.53
2023-04-19T23:18:52.470Z,5.43
2023-04-19T23:21:18.980Z,6.83
2023-04-19T23:23:45.768Z,6.10
2023-04-19T23:26:12.415Z,6.33
2023-04-19T23:28:38.960Z,6.37
2023-04-19T23:31:05.544Z,6.90
2023-04-19T23:33:32.145Z,6.20
2023-04-19T23:35:58.614Z,6.00
2023-04-19T23:38:25.140Z,7.10
2023-04-19T23:40:51.561Z,6.63
2023-04-19T23:43:18.077Z,8.20
2023-04-19T23:45:44.592Z,5.90
2023-04-19T23:48:13.053Z,6.93
2023-04-19T23:50:39.512Z,6.90
2023-04-19T23:53:05.944Z,6.80
2023-04-19T23:55:32.469Z,7.17
2023-04-19T23:57:58.935Z,7.37
